sensor_id;sensor_type;location;lat;lon;timestamp;P1;durP1;ratioP1;P2;durP2;ratioP2
17812;SDS011;9030;50.792;8.320;2023-04-25T00:00:20;20.50;;;7.33;;
17812;SDS011;9030;50.792;8.320;2023-04-25T00:02:46;16.80;;;8.50;;
17812;SDS011;9030;50.792;8.320;2023-04-25T00:05:15;16.23;;;7.63;;
17812;SDS011;9030;50.792;8.320;2023-04-25T00:07:42;20.50;;;8.40;;
17812;SDS011;9030;50.792;8.320;2023-04-25T00:10:09;18.60;;;9.07;;
17812;SDS011;9030;50.792;8.320;2023-04-25T00:12:36;17.80;;;8.07;;
17812;SDS011;9030;50.792;8.320;2023-04-25T00:15:04;17.20;;;7.80;;
17812;SDS011;9030;50.792;8.320;2023-04-25T00:17:31;21.17;;;8.20;;
17812;SDS011;9030;50.792;8.320;2023-04-25T00:19:59;11.13;;;6.67;;
17812;SDS011;9030;50.792;8.320;2023-04-25T00:22:31;16.90;;;8.83;;
17812;SDS011;9030;50.792;8.320;2023-04-25T00:24:58;12.70;;;6.57;;
17812;SDS011;9030;50.792;8.320;2023-04-25T00:27:25;14.13;;;7.83;;
17812;SDS011;9030;50.792;8.320;2023-04-25T00:29:52;20.60;;;9.47;;
17812;SDS011;9030;50.792;8.320;2023-04-25T00:32:19;15.77;;;7.57;;
17812;SDS011;9030;50.792;8.320;2023-04-25T00:34:45;16.00;;;7.13;;
17812;SDS011;9030;50.792;8.320;2023-04-25T00:37:12;17.63;;;8.50;;
17812;SDS011;9030;50.792;8.320;2023-04-25T00:39:41;17.20;;;7.40;;
17812;SDS011;9030;50.792;8.320;2023-04-25T00:42:07;14.43;;;8.37;;
17812;SDS011;9030;50.792;8.320;2023-04-25T00:44:34;17.90;;;7.57;;
17812;SDS011;9030;50.792;8.320;2023-04-25T00:47:02;17.67;;;7.90;;
17812;SDS011;9030;50.792;8.320;2023-04-25T00:49:29;11.37;;;7.10;;
17812;SDS011;9030;50.792;8.320;2023-04-25T00:51:56;18.10;;;7.30;;
17812;SDS011;9030;50.792;8.320;2023-04-25T00:54:23;20.57;;;8.60;;
17812;SDS011;9030;50.792;8.320;2023-04-25T00:56:52;14.97;;;7.20;;
17812;SDS011;9030;50.792;8.320;2023-04-25T00:59:19;13.03;;;7.60;;
17812;SDS011;9030;50.792;8.320;2023-04-25T01:01:46;20.67;;;9.20;;
17812;SDS011;9030;50.792;8.320;2023-04-25T01:04:13;19.67;;;10.60;;
17812;SDS011;9030;50.792;8.320;2023-04-25T01:06:40;15.27;;;8.80;;
17812;SDS011;9030;50.792;8.320;2023-04-25T01:09:06;20.10;;;7.87;;
17812;SDS011;9030;50.792;8.320;2023-04-25T01:11:34;14.87;;;9.70;;
17812;SDS011;9030;50.792;8.320;2023-04-25T01:14:02;18.47;;;7.33;;
17812;SDS011;9030;50.792;8.320;2023-04-25T01:16:29;21.13;;;8.83;;
17812;SDS011;9030;50.792;8.320;2023-04-25T01:18:57;18.20;;;8.73;;
17812;SDS011;9030;50.792;8.320;2023-04-25T01:21:25;16.60;;;9.00;;
17812;SDS011;9030;50.792;8.320;2023-04-25T01:23:54;17.30;;;8.33;;
17812;SDS011;9030;50.792;8.320;2023-04-25T01:26:21;14.80;;;9.10;;
17812;SDS011;9030;50.792;8.320;2023-04-25T01:28:49;17.13;;;8.80;;
17812;SDS011;9030;50.792;8.320;2023-04-25T01:31:16;20.17;;;10.70;;
17812;SDS011;9030;50.792;8.320;2023-04-25T01:33:44;19.33;;;8.17;;
17812;SDS011;9030;50.792;8.320;2023-04-25T01:36:11;17.00;;;8.43;;
17812;SDS011;9030;50.792;8.320;2023-04-25T01:38:40;20.53;;;9.53;;
17812;SDS011;9030;50.792;8.320;2023-04-25T01:41:08;20.17;;;10.07;;
17812;SDS011;9030;50.792;8.320;2023-04-25T01:43:35;15.57;;;10.33;;
17812;SDS011;9030;50.792;8.320;2023-04-25T01:46:02;19.20;;;10.90;;
17812;SDS011;9030;50.792;8.320;2023-04-25T01:48:29;18.83;;;9.03;;
17812;SDS011;9030;50.792;8.320;2023-04-25T01:50:56;25.03;;;11.03;;
17812;SDS011;9030;50.792;8.320;2023-04-25T01:53:23;21.67;;;10.50;;
17812;SDS011;9030;50.792;8.320;2023-04-25T01:55:52;17.23;;;9.10;;
17812;SDS011;9030;50.792;8.320;2023-04-25T01:58:19;17.33;;;8.37;;
17812;SDS011;9030;50.792;8.320;2023-04-25T02:00:46;22.90;;;9.87;;
17812;SDS011;9030;50.792;8.320;2023-04-25T02:03:12;19.20;;;9.77;;
17812;SDS011;9030;50.792;8.320;2023-04-25T02:05:40;20.77;;;9.60;;
17812;SDS011;9030;50.792;8.320;2023-04-25T02:08:07;19.27;;;11.50;;
17812;SDS011;9030;50.792;8.320;2023-04-25T02:10:35;27.93;;;12.20;;
17812;SDS011;9030;50.792;8.320;2023-04-25T02:13:04;23.47;;;13.67;;
17812;SDS011;9030;50.792;8.320;2023-04-25T02:15:31;24.00;;;13.50;;
17812;SDS011;9030;50.792;8.320;2023-04-25T02:17:58;27.27;;;13.47;;
17812;SDS011;9030;50.792;8.320;2023-04-25T02:20:26;27.93;;;13.97;;
17812;SDS011;9030;50.792;8.320;2023-04-25T02:22:55;24.70;;;14.83;;
17812;SDS011;9030;50.792;8.320;2023-04-25T02:25:22;23.90;;;14.53;;
17812;SDS011;9030;50.792;8.320;2023-04-25T02:27:49;21.83;;;12.07;;
17812;SDS011;9030;50.792;8.320;2023-04-25T02:30:17;22.43;;;12.67;;
17812;SDS011;9030;50.792;8.320;2023-04-25T02:32:44;22.27;;;12.17;;
17812;SDS011;9030;50.792;8.320;2023-04-25T02:35:11;24.83;;;11.53;;
17812;SDS011;9030;50.792;8.320;2023-04-25T02:37:38;27.33;;;13.13;;
17812;SDS011;9030;50.792;8.320;2023-04-25T02:40:06;22.83;;;11.43;;
17812;SDS011;9030;50.792;8.320;2023-04-25T02:42:34;24.33;;;12.57;;
17812;SDS011;9030;50.792;8.320;2023-04-25T02:45:01;18.53;;;10.37;;
17812;SDS011;9030;50.792;8.320;2023-04-25T02:47:29;22.47;;;12.27;;
17812;SDS011;9030;50.792;8.320;2023-04-25T02:49:56;24.47;;;11.90;;
17812;SDS011;9030;50.792;8.320;2023-04-25T02:52:23;22.83;;;13.47;;
17812;SDS011;9030;50.792;8.320;2023-04-25T02:54:50;20.03;;;10.47;;
17812;SDS011;9030;50.792;8.320;2023-04-25T02:57:17;19.83;;;10.40;;
17812;SDS011;9030;50.792;8.320;2023-04-25T02:59:44;18.50;;;11.07;;
17812;SDS011;9030;50.792;8.320;2023-04-25T03:02:11;22.93;;;10.37;;
17812;SDS011;9030;50.792;8.320;2023-04-25T03:04:39;18.27;;;10.57;;
17812;SDS011;9030;50.792;8.320;2023-04-25T03:07:06;18.80;;;9.83;;
17812;SDS011;9030;50.792;8.320;2023-04-25T03:09:32;15.97;;;7.67;;
17812;SDS011;9030;50.792;8.320;2023-04-25T03:11:59;16.20;;;8.30;;
17812;SDS011;9030;50.792;8.320;2023-04-25T03:14:26;19.47;;;8.27;;
17812;SDS011;9030;50.792;8.320;2023-04-25T03:16:53;20.47;;;7.73;;
17812;SDS011;9030;50.792;8.320;2023-04-25T03:19:20;20.67;;;7.50;;
17812;SDS011;9030;50.792;8.320;2023-04-25T03:21:48;16.23;;;8.70;;
17812;SDS011;9030;50.792;8.320;2023-04-25T03:24:15;17.70;;;8.93;;
17812;SDS011;9030;50.792;8.320;2023-04-25T03:26:42;17.13;;;7.70;;
17812;SDS011;9030;50.792;8.320;2023-04-25T03:29:08;12.90;;;6.73;;
17812;SDS011;9030;50.792;8.320;2023-04-25T03:31:35;17.67;;;7.37;;
17812;SDS011;9030;50.792;8.320;2023-04-25T03:34:02;17.33;;;8.43;;
17812;SDS011;9030;50.792;8.320;2023-04-25T03:36:29;12.17;;;6.97;;
17812;SDS011;9030;50.792;8.320;2023-04-25T03:38:57;15.60;;;7.93;;
17812;SDS011;9030;50.792;8.320;2023-04-25T03:41:24;17.53;;;7.30;;
17812;SDS011;9030;50.792;8.320;2023-04-25T03:43:51;16.37;;;8.13;;
17812;SDS011;9030;50.792;8.320;2023-04-25T03:46:17;21.17;;;8.80;;
17812;SDS011;9030;50.792;8.320;2023-04-25T03:48:44;15.90;;;8.23;;
17812;SDS011;9030;50.792;8.320;2023-04-25T03:51:11;19.10;;;8.87;;
17812;SDS011;9030;50.792;8.320;2023-04-25T03:53:38;19.10;;;8.33;;
17812;SDS011;9030;50.792;8.320;2023-04-25T03:56:06;19.80;;;9.77;;
17812;SDS011;9030;50.792;8.320;2023-04-25T03:58:34;19.97;;;9.43;;
17812;SDS011;9030;50.792;8.320;2023-04-25T04:01:01;16.40;;;8.80;;
17812;SDS011;9030;50.792;8.320;2023-04-25T04:03:32;17.00;;;8.60;;
17812;SDS011;9030;50.792;8.320;2023-04-25T04:05:59;16.73;;;9.00;;
17812;SDS011;9030;50.792;8.320;2023-04-25T04:08:26;19.70;;;11.17;;
17812;SDS011;9030;50.792;8.320;2023-04-25T04:10:52;20.33;;;11.07;;
17812;SDS011;9030;50.792;8.320;2023-04-25T04:13:22;20.60;;;11.97;;
17812;SDS011;9030;50.792;8.320;2023-04-25T04:15:48;19.57;;;12.53;;
17812;SDS011;9030;50.792;8.320;2023-04-25T04:18:15;20.27;;;9.87;;
17812;SDS011;9030;50.792;8.320;2023-04-25T04:20:42;19.17;;;11.03;;
17812;SDS011;9030;50.792;8.320;2023-04-25T04:23:09;26.97;;;15.53;;
17812;SDS011;9030;50.792;8.320;2023-04-25T04:25:36;18.13;;;10.70;;
17812;SDS011;9030;50.792;8.320;2023-04-25T04:28:02;18.37;;;10.07;;
17812;SDS011;9030;50.792;8.320;2023-04-25T04:30:31;21.03;;;10.93;;
17812;SDS011;9030;50.792;8.320;2023-04-25T04:33:01;23.60;;;11.57;;
17812;SDS011;9030;50.792;8.320;2023-04-25T04:35:28;27.90;;;11.93;;
17812;SDS011;9030;50.792;8.320;2023-04-25T04:37:55;20.40;;;12.10;;
17812;SDS011;9030;50.792;8.320;2023-04-25T04:40:22;21.33;;;11.40;;
17812;SDS011;9030;50.792;8.320;2023-04-25T04:42:49;19.03;;;11.47;;
17812;SDS011;9030;50.792;8.320;2023-04-25T04:45:15;24.37;;;13.33;;
17812;SDS011;9030;50.792;8.320;2023-04-25T04:47:44;21.07;;;13.47;;
17812;SDS011;9030;50.792;8.320;2023-04-25T04:50:11;19.83;;;12.90;;
17812;SDS011;9030;50.792;8.320;2023-04-25T04:52:38;24.03;;;12.40;;
17812;SDS011;9030;50.792;8.320;2023-04-25T04:55:05;24.03;;;14.17;;
17812;SDS011;9030;50.792;8.320;2023-04-25T04:57:33;20.73;;;13.53;;
17812;SDS011;9030;50.792;8.320;2023-04-25T05:00:00;25.10;;;14.70;;
17812;SDS011;9030;50.792;8.320;2023-04-25T05:02:27;18.47;;;12.63;;
17812;SDS011;9030;50.792;8.320;2023-04-25T05:04:55;22.80;;;14.23;;
17812;SDS011;9030;50.792;8.320;2023-04-25T05:07:22;19.80;;;12.40;;
17812;SDS011;9030;50.792;8.320;2023-04-25T05:09:49;26.13;;;17.13;;
17812;SDS011;9030;50.792;8.320;2023-04-25T05:12:16;25.60;;;16.47;;
17812;SDS011;9030;50.792;8.320;2023-04-25T05:14:43;27.07;;;14.80;;
17812;SDS011;9030;50.792;8.320;2023-04-25T05:17:10;22.57;;;15.63;;
17812;SDS011;9030;50.792;8.320;2023-04-25T05:19:37;23.20;;;16.07;;
17812;SDS011;9030;50.792;8.320;2023-04-25T05:22:05;24.80;;;15.03;;
17812;SDS011;9030;50.792;8.320;2023-04-25T05:24:32;20.73;;;13.83;;
17812;SDS011;9030;50.792;8.320;2023-04-25T05:26:59;26.90;;;16.80;;
17812;SDS011;9030;50.792;8.320;2023-04-25T05:29:26;26.23;;;15.33;;
17812;SDS011;9030;50.792;8.320;2023-04-25T05:31:52;24.47;;;16.47;;
17812;SDS011;9030;50.792;8.320;2023-04-25T05:34:19;26.27;;;17.03;;
17812;SDS011;9030;50.792;8.320;2023-04-25T05:36:46;24.67;;;16.77;;
17812;SDS011;9030;50.792;8.320;2023-04-25T05:39:15;26.63;;;16.93;;
17812;SDS011;9030;50.792;8.320;2023-04-25T05:41:42;23.93;;;15.63;;
17812;SDS011;9030;50.792;8.320;2023-04-25T05:44:09;25.63;;;15.30;;
17812;SDS011;9030;50.792;8.320;2023-04-25T05:46:36;21.30;;;15.37;;
17812;SDS011;9030;50.792;8.320;2023-04-25T05:49:03;30.87;;;21.23;;
17812;SDS011;9030;50.792;8.320;2023-04-25T05:51:30;22.60;;;15.60;;
17812;SDS011;9030;50.792;8.320;2023-04-25T05:53:56;24.77;;;17.10;;
17812;SDS011;9030;50.792;8.320;2023-04-25T05:56:25;21.83;;;17.07;;
17812;SDS011;9030;50.792;8.320;2023-04-25T05:58:51;28.67;;;18.80;;
17812;SDS011;9030;50.792;8.320;2023-04-25T06:01:18;23.73;;;15.83;;
17812;SDS011;9030;50.792;8.320;2023-04-25T06:03:45;27.40;;;17.97;;
17812;SDS011;9030;50.792;8.320;2023-04-25T06:06:12;24.70;;;16.53;;
17812;SDS011;9030;50.792;8.320;2023-04-25T06:08:39;26.53;;;17.17;;
17812;SDS011;9030;50.792;8.320;2023-04-25T06:11:06;29.13;;;18.53;;
17812;SDS011;9030;50.792;8.320;2023-04-25T06:13:34;28.73;;;18.40;;
17812;SDS011;9030;50.792;8.320;2023-04-25T06:16:01;25.90;;;18.03;;
17812;SDS011;9030;50.792;8.320;2023-04-25T06:18:27;30.83;;;19.57;;
17812;SDS011;9030;50.792;8.320;2023-04-25T06:20:54;26.07;;;18.07;;
17812;SDS011;9030;50.792;8.320;2023-04-25T06:23:21;27.33;;;16.40;;
17812;SDS011;9030;50.792;8.320;2023-04-25T06:25:47;22.00;;;15.57;;
17812;SDS011;9030;50.792;8.320;2023-04-25T06:28:14;21.50;;;14.60;;
17812;SDS011;9030;50.792;8.320;2023-04-25T06:30:42;26.33;;;14.90;;
17812;SDS011;9030;50.792;8.320;2023-04-25T06:33:09;23.97;;;15.57;;
17812;SDS011;9030;50.792;8.320;2023-04-25T06:35:36;23.30;;;14.63;;
17812;SDS011;9030;50.792;8.320;2023-04-25T06:38:02;27.90;;;15.30;;
17812;SDS011;9030;50.792;8.320;2023-04-25T06:40:29;21.07;;;15.30;;
17812;SDS011;9030;50.792;8.320;2023-04-25T06:42:56;21.30;;;12.97;;
17812;SDS011;9030;50.792;8.320;2023-04-25T06:45:22;23.07;;;13.63;;
17812;SDS011;9030;50.792;8.320;2023-04-25T06:47:51;26.73;;;14.07;;
17812;SDS011;9030;50.792;8.320;2023-04-25T06:50:17;20.80;;;13.77;;
17812;SDS011;9030;50.792;8.320;2023-04-25T06:52:44;17.50;;;12.80;;
17812;SDS011;9030;50.792;8.320;2023-04-25T06:55:11;21.23;;;13.27;;
17812;SDS011;9030;50.792;8.320;2023-04-25T06:57:37;16.03;;;12.20;;
17812;SDS011;9030;50.792;8.320;2023-04-25T07:00:05;23.43;;;13.00;;
17812;SDS011;9030;50.792;8.320;2023-04-25T07:02:34;20.23;;;11.40;;
17812;SDS011;9030;50.792;8.320;2023-04-25T07:05:02;15.60;;;11.27;;
17812;SDS011;9030;50.792;8.320;2023-04-25T07:07:30;18.27;;;9.90;;
17812;SDS011;9030;50.792;8.320;2023-04-25T07:09:57;19.53;;;11.23;;
17812;SDS011;9030;50.792;8.320;2023-04-25T07:12:24;15.60;;;9.80;;
17812;SDS011;9030;50.792;8.320;2023-04-25T07:14:50;19.77;;;10.53;;
17812;SDS011;9030;50.792;8.320;2023-04-25T07:17:17;18.80;;;11.03;;
17812;SDS011;9030;50.792;8.320;2023-04-25T07:19:44;21.10;;;9.73;;
17812;SDS011;9030;50.792;8.320;2023-04-25T07:22:12;20.53;;;10.60;;
17812;SDS011;9030;50.792;8.320;2023-04-25T07:24:39;18.43;;;8.90;;
17812;SDS011;9030;50.792;8.320;2023-04-25T07:27:05;17.90;;;9.83;;
17812;SDS011;9030;50.792;8.320;2023-04-25T07:29:32;17.23;;;9.17;;
17812;SDS011;9030;50.792;8.320;2023-04-25T07:32:02;17.70;;;9.97;;
17812;SDS011;9030;50.792;8.320;2023-04-25T07:34:28;21.00;;;10.73;;
17812;SDS011;9030;50.792;8.320;2023-04-25T07:36:55;20.17;;;11.63;;
17812;SDS011;9030;50.792;8.320;2023-04-25T07:39:25;16.17;;;9.90;;
17812;SDS011;9030;50.792;8.320;2023-04-25T07:41:52;21.23;;;9.53;;
17812;SDS011;9030;50.792;8.320;2023-04-25T07:44:19;16.50;;;8.27;;
17812;SDS011;9030;50.792;8.320;2023-04-25T07:46:46;19.17;;;8.13;;
17812;SDS011;9030;50.792;8.320;2023-04-25T07:49:13;16.77;;;7.77;;
17812;SDS011;9030;50.792;8.320;2023-04-25T07:51:40;13.67;;;5.83;;
17812;SDS011;9030;50.792;8.320;2023-04-25T07:54:08;14.30;;;6.97;;
17812;SDS011;9030;50.792;8.320;2023-04-25T07:56:36;15.40;;;7.17;;
17812;SDS011;9030;50.792;8.320;2023-04-25T07:59:03;12.80;;;5.73;;
17812;SDS011;9030;50.792;8.320;2023-04-25T08:01:30;16.53;;;5.73;;
17812;SDS011;9030;50.792;8.320;2023-04-25T08:03:57;11.67;;;4.30;;
17812;SDS011;9030;50.792;8.320;2023-04-25T08:06:23;13.33;;;4.97;;
17812;SDS011;9030;50.792;8.320;2023-04-25T08:08:50;15.53;;;4.53;;
17812;SDS011;9030;50.792;8.320;2023-04-25T08:11:17;12.73;;;4.80;;
17812;SDS011;9030;50.792;8.320;2023-04-25T08:13:45;13.97;;;6.37;;
17812;SDS011;9030;50.792;8.320;2023-04-25T08:16:12;19.40;;;6.17;;
17812;SDS011;9030;50.792;8.320;2023-04-25T08:18:38;19.47;;;5.90;;
17812;SDS011;9030;50.792;8.320;2023-04-25T08:21:05;13.97;;;5.80;;
17812;SDS011;9030;50.792;8.320;2023-04-25T08:23:33;13.70;;;4.80;;
17812;SDS011;9030;50.792;8.320;2023-04-25T08:26:00;16.27;;;4.33;;
17812;SDS011;9030;50.792;8.320;2023-04-25T08:28:27;16.50;;;5.07;;
17812;SDS011;9030;50.792;8.320;2023-04-25T08:30:56;11.50;;;4.60;;
17812;SDS011;9030;50.792;8.320;2023-04-25T08:33:22;13.63;;;4.40;;
17812;SDS011;9030;50.792;8.320;2023-04-25T08:35:49;15.03;;;3.80;;
17812;SDS011;9030;50.792;8.320;2023-04-25T08:38:16;17.97;;;3.97;;
17812;SDS011;9030;50.792;8.320;2023-04-25T08:40:43;12.73;;;4.63;;
17812;SDS011;9030;50.792;8.320;2023-04-25T08:43:11;12.50;;;3.40;;
17812;SDS011;9030;50.792;8.320;2023-04-25T08:45:40;14.13;;;4.10;;
17812;SDS011;9030;50.792;8.320;2023-04-25T08:48:10;15.57;;;3.63;;
17812;SDS011;9030;50.792;8.320;2023-04-25T08:50:38;31.70;;;21.50;;
17812;SDS011;9030;50.792;8.320;2023-04-25T08:53:08;10.77;;;3.13;;
17812;SDS011;9030;50.792;8.320;2023-04-25T08:55:38;13.83;;;3.97;;
17812;SDS011;9030;50.792;8.320;2023-04-25T08:58:08;12.40;;;3.63;;
17812;SDS011;9030;50.792;8.320;2023-04-25T09:00:36;14.87;;;3.53;;
17812;SDS011;9030;50.792;8.320;2023-04-25T09:03:03;11.83;;;3.60;;
17812;SDS011;9030;50.792;8.320;2023-04-25T09:05:32;13.07;;;3.80;;
17812;SDS011;9030;50.792;8.320;2023-04-25T09:08:00;13.30;;;3.63;;
17812;SDS011;9030;50.792;8.320;2023-04-25T09:10:27;15.17;;;2.87;;
17812;SDS011;9030;50.792;8.320;2023-04-25T09:13:03;11.47;;;2.80;;
17812;SDS011;9030;50.792;8.320;2023-04-25T09:15:31;12.77;;;4.40;;
17812;SDS011;9030;50.792;8.320;2023-04-25T09:17:58;12.57;;;4.07;;
17812;SDS011;9030;50.792;8.320;2023-04-25T09:20:25;11.50;;;3.77;;
17812;SDS011;9030;50.792;8.320;2023-04-25T09:23:03;11.73;;;3.50;;
17812;SDS011;9030;50.792;8.320;2023-04-25T09:25:35;11.93;;;3.97;;
17812;SDS011;9030;50.792;8.320;2023-04-25T09:28:04;13.43;;;3.73;;
17812;SDS011;9030;50.792;8.320;2023-04-25T09:30:32;13.67;;;4.73;;
17812;SDS011;9030;50.792;8.320;2023-04-25T09:33:03;13.57;;;4.00;;
17812;SDS011;9030;50.792;8.320;2023-04-25T09:35:34;12.90;;;3.57;;
17812;SDS011;9030;50.792;8.320;2023-04-25T09:38:07;15.90;;;3.87;;
17812;SDS011;9030;50.792;8.320;2023-04-25T09:40:38;13.53;;;3.87;;
17812;SDS011;9030;50.792;8.320;2023-04-25T09:43:08;14.80;;;4.37;;
17812;SDS011;9030;50.792;8.320;2023-04-25T09:45:40;12.47;;;3.23;;
17812;SDS011;9030;50.792;8.320;2023-04-25T09:48:12;14.83;;;4.00;;
17812;SDS011;9030;50.792;8.320;2023-04-25T09:50:43;13.20;;;4.33;;
17812;SDS011;9030;50.792;8.320;2023-04-25T09:53:12;14.87;;;3.37;;
17812;SDS011;9030;50.792;8.320;2023-04-25T09:55:38;10.97;;;3.63;;
17812;SDS011;9030;50.792;8.320;2023-04-25T09:58:08;19.03;;;4.07;;
17812;SDS011;9030;50.792;8.320;2023-04-25T10:00:36;12.47;;;3.47;;
17812;SDS011;9030;50.792;8.320;2023-04-25T10:03:05;14.00;;;4.57;;
17812;SDS011;9030;50.792;8.320;2023-04-25T10:05:32;15.27;;;4.17;;
17812;SDS011;9030;50.792;8.320;2023-04-25T10:08:02;17.47;;;3.83;;
17812;SDS011;9030;50.792;8.320;2023-04-25T10:10:31;19.47;;;5.57;;
17812;SDS011;9030;50.792;8.320;2023-04-25T10:13:02;12.50;;;4.63;;
17812;SDS011;9030;50.792;8.320;2023-04-25T10:15:34;18.27;;;4.50;;
17812;SDS011;9030;50.792;8.320;2023-04-25T10:18:01;14.53;;;4.87;;
17812;SDS011;9030;50.792;8.320;2023-04-25T10:20:28;13.30;;;4.10;;
17812;SDS011;9030;50.792;8.320;2023-04-25T10:22:57;17.27;;;5.10;;
17812;SDS011;9030;50.792;8.320;2023-04-25T10:25:28;8.50;;;3.37;;
17812;SDS011;9030;50.792;8.320;2023-04-25T10:27:56;13.80;;;5.27;;
17812;SDS011;9030;50.792;8.320;2023-04-25T10:30:26;11.83;;;3.53;;
17812;SDS011;9030;50.792;8.320;2023-04-25T10:32:54;10.53;;;4.30;;
17812;SDS011;9030;50.792;8.320;2023-04-25T10:35:23;16.97;;;4.03;;
17812;SDS011;9030;50.792;8.320;2023-04-25T10:40:40;13.97;;;5.77;;
17812;SDS011;9030;50.792;8.320;2023-04-25T10:46:16;17.27;;;4.77;;
17812;SDS011;9030;50.792;8.320;2023-04-25T10:48:47;15.43;;;5.50;;
17812;SDS011;9030;50.792;8.320;2023-04-25T10:51:16;14.73;;;5.53;;
17812;SDS011;9030;50.792;8.320;2023-04-25T10:53:45;15.63;;;4.93;;
17812;SDS011;9030;50.792;8.320;2023-04-25T10:56:16;12.43;;;3.80;;
17812;SDS011;9030;50.792;8.320;2023-04-25T10:58:45;13.43;;;3.30;;
17812;SDS011;9030;50.792;8.320;2023-04-25T11:01:12;12.43;;;3.40;;
17812;SDS011;9030;50.792;8.320;2023-04-25T11:03:40;10.70;;;3.53;;
17812;SDS011;9030;50.792;8.320;2023-04-25T11:06:11;14.33;;;3.70;;
17812;SDS011;9030;50.792;8.320;2023-04-25T11:08:47;10.83;;;4.20;;
17812;SDS011;9030;50.792;8.320;2023-04-25T11:11:16;13.47;;;4.60;;
17812;SDS011;9030;50.792;8.320;2023-04-25T11:13:46;15.27;;;5.33;;
17812;SDS011;9030;50.792;8.320;2023-04-25T11:16:14;14.30;;;4.37;;
17812;SDS011;9030;50.792;8.320;2023-04-25T11:18:41;12.63;;;4.40;;
17812;SDS011;9030;50.792;8.320;2023-04-25T11:21:08;12.33;;;4.57;;
17812;SDS011;9030;50.792;8.320;2023-04-25T11:23:35;14.27;;;4.53;;
17812;SDS011;9030;50.792;8.320;2023-04-25T11:26:02;15.80;;;5.50;;
17812;SDS011;9030;50.792;8.320;2023-04-25T11:28:29;13.73;;;5.33;;
17812;SDS011;9030;50.792;8.320;2023-04-25T11:30:57;15.07;;;4.97;;
17812;SDS011;9030;50.792;8.320;2023-04-25T11:33:24;17.53;;;5.23;;
17812;SDS011;9030;50.792;8.320;2023-04-25T11:35:52;15.50;;;4.77;;
17812;SDS011;9030;50.792;8.320;2023-04-25T11:38:20;14.23;;;4.93;;
17812;SDS011;9030;50.792;8.320;2023-04-25T11:40:49;10.60;;;3.93;;
17812;SDS011;9030;50.792;8.320;2023-04-25T11:43:17;12.60;;;4.30;;
17812;SDS011;9030;50.792;8.320;2023-04-25T11:45:46;10.10;;;3.40;;
17812;SDS011;9030;50.792;8.320;2023-04-25T11:48:15;12.60;;;3.17;;
17812;SDS011;9030;50.792;8.320;2023-04-25T11:50:42;14.33;;;3.83;;
17812;SDS011;9030;50.792;8.320;2023-04-25T11:53:09;15.93;;;3.10;;
17812;SDS011;9030;50.792;8.320;2023-04-25T11:55:36;11.87;;;3.77;;
17812;SDS011;9030;50.792;8.320;2023-04-25T11:58:04;13.47;;;2.97;;
17812;SDS011;9030;50.792;8.320;2023-04-25T12:00:31;11.47;;;2.97;;
17812;SDS011;9030;50.792;8.320;2023-04-25T12:02:58;13.37;;;3.90;;
17812;SDS011;9030;50.792;8.320;2023-04-25T12:05:28;12.53;;;3.33;;
17812;SDS011;9030;50.792;8.320;2023-04-25T12:07:58;13.47;;;3.43;;
17812;SDS011;9030;50.792;8.320;2023-04-25T12:10:36;13.47;;;3.70;;
17812;SDS011;9030;50.792;8.320;2023-04-25T12:13:17;8.00;;;2.80;;
17812;SDS011;9030;50.792;8.320;2023-04-25T12:15:45;13.27;;;3.40;;
17812;SDS011;9030;50.792;8.320;2023-04-25T12:18:12;10.57;;;2.57;;
17812;SDS011;9030;50.792;8.320;2023-04-25T12:20:41;14.17;;;2.83;;
17812;SDS011;9030;50.792;8.320;2023-04-25T12:23:07;12.67;;;3.80;;
17812;SDS011;9030;50.792;8.320;2023-04-25T12:25:36;10.80;;;3.10;;
17812;SDS011;9030;50.792;8.320;2023-04-25T12:28:10;12.80;;;3.10;;
17812;SDS011;9030;50.792;8.320;2023-04-25T12:30:57;10.23;;;2.63;;
17812;SDS011;9030;50.792;8.320;2023-04-25T12:33:26;8.47;;;2.37;;
17812;SDS011;9030;50.792;8.320;2023-04-25T12:35:55;12.27;;;3.57;;
17812;SDS011;9030;50.792;8.320;2023-04-25T12:38:22;12.00;;;4.10;;
17812;SDS011;9030;50.792;8.320;2023-04-25T12:40:50;9.47;;;2.13;;
17812;SDS011;9030;50.792;8.320;2023-04-25T12:43:17;14.10;;;2.50;;
17812;SDS011;9030;50.792;8.320;2023-04-25T12:45:44;18.43;;;3.50;;
17812;SDS011;9030;50.792;8.320;2023-04-25T12:48:11;12.27;;;3.07;;
17812;SDS011;9030;50.792;8.320;2023-04-25T12:50:38;12.10;;;2.73;;
17812;SDS011;9030;50.792;8.320;2023-04-25T12:53:07;13.57;;;3.80;;
17812;SDS011;9030;50.792;8.320;2023-04-25T12:55:34;10.77;;;3.23;;
17812;SDS011;9030;50.792;8.320;2023-04-25T12:58:01;13.73;;;3.57;;
17812;SDS011;9030;50.792;8.320;2023-04-25T13:00:28;12.10;;;4.03;;
17812;SDS011;9030;50.792;8.320;2023-04-25T13:02:54;7.80;;;2.87;;
17812;SDS011;9030;50.792;8.320;2023-04-25T13:05:21;16.10;;;3.20;;
17812;SDS011;9030;50.792;8.320;2023-04-25T13:07:48;13.10;;;3.07;;
17812;SDS011;9030;50.792;8.320;2023-04-25T13:10:17;15.17;;;2.80;;
17812;SDS011;9030;50.792;8.320;2023-04-25T13:12:44;10.33;;;2.60;;
17812;SDS011;9030;50.792;8.320;2023-04-25T13:15:11;9.23;;;2.27;;
17812;SDS011;9030;50.792;8.320;2023-04-25T13:17:40;8.97;;;3.23;;
17812;SDS011;9030;50.792;8.320;2023-04-25T13:20:07;14.07;;;3.17;;
17812;SDS011;9030;50.792;8.320;2023-04-25T13:22:35;7.97;;;3.50;;
17812;SDS011;9030;50.792;8.320;2023-04-25T13:25:02;10.97;;;2.47;;
17812;SDS011;9030;50.792;8.320;2023-04-25T13:27:31;7.57;;;2.30;;
17812;SDS011;9030;50.792;8.320;2023-04-25T13:29:59;9.73;;;2.70;;
17812;SDS011;9030;50.792;8.320;2023-04-25T13:32:26;11.30;;;2.90;;
17812;SDS011;9030;50.792;8.320;2023-04-25T13:34:53;11.60;;;2.30;;
17812;SDS011;9030;50.792;8.320;2023-04-25T13:37:20;10.77;;;2.07;;
17812;SDS011;9030;50.792;8.320;2023-04-25T13:39:49;9.57;;;2.50;;
17812;SDS011;9030;50.792;8.320;2023-04-25T13:42:16;16.60;;;2.93;;
17812;SDS011;9030;50.792;8.320;2023-04-25T13:44:44;14.50;;;3.23;;
17812;SDS011;9030;50.792;8.320;2023-04-25T13:47:10;12.23;;;2.83;;
17812;SDS011;9030;50.792;8.320;2023-04-25T13:49:37;12.37;;;2.60;;
17812;SDS011;9030;50.792;8.320;2023-04-25T13:52:04;10.00;;;2.83;;
17812;SDS011;9030;50.792;8.320;2023-04-25T13:54:31;12.43;;;3.30;;
17812;SDS011;9030;50.792;8.320;2023-04-25T13:56:58;9.63;;;3.20;;
17812;SDS011;9030;50.792;8.320;2023-04-25T13:59:25;11.90;;;2.87;;
17812;SDS011;9030;50.792;8.320;2023-04-25T14:01:53;10.00;;;3.07;;
17812;SDS011;9030;50.792;8.320;2023-04-25T14:04:20;11.87;;;2.63;;
17812;SDS011;9030;50.792;8.320;2023-04-25T14:06:47;10.13;;;2.43;;
17812;SDS011;9030;50.792;8.320;2023-04-25T14:09:14;8.80;;;2.30;;
17812;SDS011;9030;50.792;8.320;2023-04-25T14:11:40;9.43;;;2.17;;
17812;SDS011;9030;50.792;8.320;2023-04-25T14:14:07;6.73;;;2.10;;
17812;SDS011;9030;50.792;8.320;2023-04-25T14:16:34;10.37;;;3.00;;
17812;SDS011;9030;50.792;8.320;2023-04-25T14:19:02;9.53;;;2.63;;
17812;SDS011;9030;50.792;8.320;2023-04-25T14:21:29;7.13;;;2.53;;
17812;SDS011;9030;50.792;8.320;2023-04-25T14:23:57;11.67;;;3.00;;
17812;SDS011;9030;50.792;8.320;2023-04-25T14:26:24;10.30;;;2.73;;
17812;SDS011;9030;50.792;8.320;2023-04-25T14:28:51;9.80;;;2.40;;
17812;SDS011;9030;50.792;8.320;2023-04-25T14:31:18;11.33;;;3.50;;
17812;SDS011;9030;50.792;8.320;2023-04-25T14:33:47;10.47;;;2.63;;
17812;SDS011;9030;50.792;8.320;2023-04-25T14:36:15;5.90;;;2.10;;
17812;SDS011;9030;50.792;8.320;2023-04-25T14:38:42;12.37;;;2.60;;
17812;SDS011;9030;50.792;8.320;2023-04-25T14:41:08;7.77;;;2.57;;
17812;SDS011;9030;50.792;8.320;2023-04-25T14:43:35;9.20;;;2.73;;
17812;SDS011;9030;50.792;8.320;2023-04-25T14:46:02;8.33;;;2.47;;
17812;SDS011;9030;50.792;8.320;2023-04-25T14:48:29;7.27;;;1.70;;
17812;SDS011;9030;50.792;8.320;2023-04-25T14:50:56;9.10;;;2.60;;
17812;SDS011;9030;50.792;8.320;2023-04-25T14:53:24;10.57;;;2.97;;